createdAt,value
2018-05-13T00:01:06.794Z,100890.52
2018-05-13T00:04:19.646Z,100891.18
2018-05-13T00:07:24.712Z,100891.35
2018-05-13T00:10:27.452Z,100890.70
2018-05-13T00:13:34.487Z,100884.09
2018-05-13T00:16:37.374Z,100885.80
2018-05-13T00:19:39.998Z,100882.83
2018-05-13T00:22:42.620Z,100878.05
2018-05-13T00:25:45.276Z,100877.17
2018-05-13T00:28:47.939Z,100873.48
2018-05-13T00:31:50.622Z,100866.88
2018-05-13T00:34:53.194Z,100867.53
2018-05-13T00:37:55.780Z,100866.27
2018-05-13T00:40:58.362Z,100867.87
2018-05-13T00:44:01.558Z,100862.66
2018-05-13T00:47:04.109Z,100859.66
2018-05-13T00:50:08.501Z,100859.80
2018-05-13T00:53:11.148Z,100862.53
2018-05-13T00:56:13.900Z,100862.70
2018-05-13T00:59:16.619Z,100864.53
2018-05-13T01:02:19.228Z,100865.13
2018-05-13T01:05:21.886Z,100858.89
2018-05-13T01:08:24.470Z,100867.48
2018-05-13T01:11:27.102Z,100863.75
2018-05-13T01:14:29.668Z,100859.17
2018-05-13T01:17:32.283Z,100859.52
2018-05-13T01:20:34.832Z,100862.03
2018-05-13T01:23:37.389Z,100861.33
2018-05-13T01:26:39.959Z,100856.82
2018-05-13T01:29:42.540Z,100854.89
2018-05-13T01:32:45.069Z,100854.19
2018-05-13T01:35:47.622Z,100854.98
2018-05-13T01:38:50.190Z,100852.92
2018-05-13T01:41:52.868Z,100853.45
2018-05-13T01:44:55.415Z,100849.84
2018-05-13T01:47:57.976Z,100847.63
2018-05-13T01:51:00.537Z,100845.47
2018-05-13T01:54:03.096Z,100847.99
2018-05-13T01:57:05.667Z,100846.79
2018-05-13T02:00:09.168Z,100845.44
2018-05-13T02:03:11.786Z,100832.08
2018-05-13T02:06:14.400Z,100844.92
2018-05-13T02:09:20.002Z,100843.16
2018-05-13T02:12:22.687Z,100843.05
2018-05-13T02:15:28.106Z,100841.63
2018-05-13T02:18:30.665Z,100831.06
2018-05-13T02:21:33.419Z,100835.33
2018-05-13T02:24:45.354Z,100825.75
2018-05-13T02:27:48.637Z,100831.08
2018-05-13T02:30:53.215Z,100820.81
2018-05-13T02:33:55.772Z,100822.20
2018-05-13T02:36:59.191Z,100815.69
2018-05-13T02:40:01.753Z,100818.08
2018-05-13T02:43:04.761Z,100814.13
2018-05-13T02:46:08.570Z,100814.86
2018-05-13T02:49:11.161Z,100820.95
2018-05-13T02:52:14.803Z,100817.60
2018-05-13T02:55:17.555Z,100822.59
2018-05-13T02:58:21.339Z,100821.50
2018-05-13T03:01:24.824Z,100820.30
2018-05-13T03:04:28.468Z,100818.12
2018-05-13T03:07:31.109Z,100813.61
2018-05-13T03:10:33.688Z,100813.42
2018-05-13T03:13:36.285Z,100817.03
2018-05-13T03:16:38.965Z,100816.64
2018-05-13T03:19:41.538Z,100812.55
2018-05-13T03:22:44.963Z,100816.33
2018-05-13T03:25:47.649Z,100816.13
2018-05-13T03:28:50.581Z,100813.64
2018-05-13T03:31:53.142Z,100817.03
2018-05-13T03:34:59.591Z,100817.82
2018-05-13T03:38:02.162Z,100817.89
2018-05-13T03:41:04.726Z,100817.59
2018-05-13T03:44:07.270Z,100819.20
2018-05-13T03:47:09.926Z,100819.42
2018-05-13T03:50:12.431Z,100814.64
2018-05-13T03:53:14.987Z,100810.77
2018-05-13T03:56:17.557Z,100816.11
2018-05-13T03:59:20.117Z,100816.91
2018-05-13T04:02:22.720Z,100816.17
2018-05-13T04:05:25.781Z,100812.50
2018-05-13T04:08:48.847Z,100813.06
2018-05-13T04:12:03.092Z,100814.78
2018-05-13T04:15:17.350Z,100809.03
2018-05-13T04:18:20.048Z,100819.02
2018-05-13T04:21:22.605Z,100816.84
2018-05-13T04:24:25.185Z,100814.50
2018-05-13T04:27:27.754Z,100816.81
2018-05-13T04:30:31.305Z,100816.52
2018-05-13T04:33:33.836Z,100822.86
2018-05-13T04:36:36.520Z,100818.16
2018-05-13T04:39:39.089Z,100810.03
2018-05-13T04:42:41.729Z,100815.34
2018-05-13T04:45:44.290Z,100816.47
2018-05-13T04:48:46.937Z,100816.42
2018-05-13T04:51:49.509Z,100816.81
2018-05-13T04:54:52.145Z,100808.99
2018-05-13T04:57:54.838Z,100807.30
2018-05-13T05:00:57.418Z,100808.78
2018-05-13T05:03:59.978Z,100801.44
2018-05-13T05:07:02.512Z,100807.16
2018-05-13T05:10:05.150Z,100799.39
2018-05-13T05:13:07.678Z,100809.38
2018-05-13T05:16:10.174Z,100808.47
2018-05-13T05:19:12.701Z,100809.38
2018-05-13T05:22:15.277Z,100805.56
2018-05-13T05:25:17.790Z,100805.68
2018-05-13T05:28:20.414Z,100806.19
2018-05-13T05:31:22.914Z,100802.80
2018-05-13T05:34:25.471Z,100808.27
2018-05-13T05:37:28.030Z,100805.38
2018-05-13T05:40:30.529Z,100813.58
2018-05-13T05:43:33.163Z,100805.94
2018-05-13T05:46:35.707Z,100809.71
2018-05-13T05:49:38.278Z,100813.19
2018-05-13T05:52:40.876Z,100812.05
2018-05-13T05:55:43.445Z,100812.12
2018-05-13T05:58:46.995Z,100811.70
2018-05-13T06:05:32.953Z,100809.22
2018-05-13T06:08:36.875Z,100809.08
2018-05-13T06:11:41.174Z,100810.34
2018-05-13T09:40:36.380Z,100722.48
2018-05-13T09:43:51.510Z,100723.34
2018-05-13T09:46:54.097Z,100733.06
2018-05-13T10:47:41.705Z,100691.66
2018-05-13T10:50:49.485Z,100685.39
2018-05-13T10:54:23.524Z,100685.11
2018-05-13T11:06:42.039Z,100670.25
2018-05-13T11:10:00.711Z,100670.91
2018-05-13T11:13:03.387Z,100662.97
2018-05-13T11:16:28.662Z,100657.94
2018-05-13T11:30:23.339Z,100653.34
2018-05-13T11:33:34.030Z,100647.46
2018-05-13T11:40:17.014Z,100647.68
2018-05-13T11:46:49.893Z,100640.13
2018-05-13T11:50:08.972Z,100643.09
2018-05-13T11:59:47.642Z,100629.13
2018-05-13T12:03:02.465Z,100638.26
2018-05-13T12:06:09.477Z,100630.34
2018-05-13T12:09:52.294Z,100624.48
2018-05-13T12:13:05.750Z,100623.98
2018-05-13T12:16:09.813Z,100620.53
2018-05-13T12:22:27.364Z,100608.86
2018-05-13T12:34:32.395Z,100609.11
2018-05-13T12:37:43.917Z,100605.66
2018-05-13T12:41:01.026Z,100600.96
2018-05-13T12:44:05.777Z,100608.35
2018-05-13T12:47:09.654Z,100601.59
2018-05-13T12:50:22.126Z,100602.34
2018-05-13T12:54:05.004Z,100601.23
2018-05-13T12:57:22.580Z,100597.28
2018-05-13T13:03:32.119Z,100585.21
2018-05-13T13:06:51.270Z,100584.25
2018-05-13T13:10:08.814Z,100590.56
2018-05-13T13:13:15.346Z,100579.25
2018-05-13T13:16:26.956Z,100584.50
2018-05-13T13:22:54.487Z,100579.83
2018-05-13T13:26:03.719Z,100574.39
2018-05-13T13:29:07.499Z,100575.28
2018-05-13T13:32:19.045Z,100579.09
2018-05-13T13:35:25.105Z,100570.22
2018-05-13T13:38:31.672Z,100568.29
2018-05-13T13:41:35.817Z,100580.56
2018-05-13T13:44:39.138Z,100574.89
2018-05-13T13:47:43.051Z,100568.45
2018-05-13T13:50:45.770Z,100564.22
2018-05-13T13:53:49.074Z,100567.33
2018-05-13T13:56:51.866Z,100563.36
2018-05-13T14:00:05.222Z,100557.86
2018-05-13T14:03:12.915Z,100563.94
2018-05-13T14:06:18.519Z,100560.34
2018-05-13T14:09:21.385Z,100559.45
2018-05-13T14:12:43.465Z,100555.80
2018-05-13T14:15:47.239Z,100548.44
2018-05-13T14:18:51.615Z,100554.81
2018-05-13T14:21:58.341Z,100546.13
2018-05-13T14:25:05.989Z,100547.26
2018-05-13T14:28:16.457Z,100537.02
2018-05-13T14:31:25.119Z,100539.20
2018-05-13T14:34:29.194Z,100536.63
2018-05-13T14:40:53.655Z,100541.82
2018-05-13T14:47:26.981Z,100532.23
2018-05-13T14:54:34.754Z,100539.83
2018-05-13T14:57:58.531Z,100534.48
2018-05-13T15:01:24.814Z,100529.73
2018-05-13T15:08:15.377Z,100527.02
2018-05-13T15:11:19.816Z,100526.16
2018-05-13T15:17:51.705Z,100517.00
2018-05-13T15:20:54.475Z,100511.85
2018-05-13T15:23:58.391Z,100500.68
2018-05-13T15:27:00.924Z,100508.16
2018-05-13T15:30:03.475Z,100507.11
2018-05-13T15:33:06.823Z,100502.15
2018-05-13T15:36:09.378Z,100503.20
2018-05-13T15:39:11.893Z,100501.05
2018-05-13T15:42:14.469Z,100500.33
2018-05-13T15:45:17.073Z,100497.66
2018-05-13T15:48:21.327Z,100505.75
2018-05-13T15:51:23.881Z,100501.14
2018-05-13T15:54:26.405Z,100504.77
2018-05-13T15:57:28.997Z,100505.05
2018-05-13T16:00:31.599Z,100490.33
2018-05-13T16:03:34.170Z,100508.11
2018-05-13T16:06:36.774Z,100492.81
2018-05-13T16:09:39.314Z,100489.08
2018-05-13T16:12:41.847Z,100493.62
2018-05-13T16:15:44.429Z,100486.16
2018-05-13T16:18:46.956Z,100481.97
2018-05-13T16:21:49.485Z,100490.88
2018-05-13T16:24:52.036Z,100489.36
2018-05-13T16:27:54.551Z,100488.23
2018-05-13T16:30:57.196Z,100490.19
2018-05-13T16:33:59.940Z,100479.13
2018-05-13T16:37:02.467Z,100480.94
2018-05-13T16:40:05.173Z,100488.15
2018-05-13T16:43:07.722Z,100485.25
2018-05-13T16:46:10.304Z,100484.56
2018-05-13T16:49:12.858Z,100476.23
2018-05-13T16:52:15.400Z,100484.59
2018-05-13T16:55:17.957Z,100488.95
2018-05-13T16:58:20.522Z,100487.70
2018-05-13T17:01:23.055Z,100488.81
2018-05-13T17:04:25.923Z,100483.66
2018-05-13T17:07:28.609Z,100481.17
2018-05-13T17:10:31.297Z,100492.97
2018-05-13T17:13:33.881Z,100492.27
2018-05-13T17:16:36.545Z,100496.25
2018-05-13T17:19:39.104Z,100496.43
2018-05-13T17:22:41.792Z,100495.90
2018-05-13T17:25:44.396Z,100497.67
2018-05-13T17:28:47.140Z,100492.18
2018-05-13T17:31:49.720Z,100490.67
2018-05-13T17:34:52.369Z,100487.14
2018-05-13T17:37:55.022Z,100488.52
2018-05-13T17:40:58.790Z,100487.34
2018-05-13T17:44:02.422Z,100489.73
2018-05-13T17:47:05.098Z,100496.48
2018-05-13T17:50:08.280Z,100499.22
2018-05-13T17:53:14.348Z,100495.89
2018-05-13T17:56:16.950Z,100499.61
2018-05-13T17:59:19.754Z,100495.34
2018-05-13T18:02:22.627Z,100494.90
2018-05-13T18:05:25.788Z,100494.41
2018-05-13T18:08:28.624Z,100496.12
2018-05-13T18:11:31.276Z,100494.65
2018-05-13T18:14:34.083Z,100501.98
2018-05-13T18:17:36.998Z,100502.52
2018-05-13T18:20:40.272Z,100505.74
2018-05-13T18:23:43.855Z,100507.08
2018-05-13T18:26:47.204Z,100507.50
2018-05-13T18:29:52.224Z,100515.02
2018-05-13T18:32:55.102Z,100516.16
2018-05-13T18:35:58.274Z,100514.61
2018-05-13T18:39:03.394Z,100515.36
2018-05-13T18:45:41.674Z,100528.53
2018-05-13T18:48:45.498Z,100531.72
2018-05-13T18:51:53.180Z,100519.41
2018-05-13T18:54:56.941Z,100528.33
2018-05-13T19:19:33.605Z,100558.14
2018-05-13T19:29:45.360Z,100572.86
2018-05-13T19:32:49.165Z,100576.10
2018-05-13T19:35:51.908Z,100583.31
2018-05-13T19:38:55.075Z,100585.89
2018-05-13T19:41:57.990Z,100586.75
2018-05-13T19:45:09.738Z,100591.22
2018-05-13T19:48:18.365Z,100593.70
2018-05-13T19:55:01.717Z,100592.73
2018-05-13T19:58:04.418Z,100599.86
2018-05-13T20:01:07.270Z,100599.83
2018-05-13T20:04:09.989Z,100602.45
2018-05-13T20:07:13.596Z,100600.73
2018-05-13T20:10:16.495Z,100601.53
2018-05-13T20:16:33.056Z,100605.20
2018-05-13T20:19:46.464Z,100605.09
2018-05-13T20:23:02.071Z,100603.61
2018-05-13T20:26:04.766Z,100608.23
2018-05-13T20:29:07.436Z,100616.47
2018-05-13T20:32:12.539Z,100615.52
2018-05-13T20:35:15.299Z,100611.89
2018-05-13T20:38:19.058Z,100613.63
2018-05-13T20:41:21.780Z,100615.59
2018-05-13T20:44:33.583Z,100618.73
2018-05-13T20:47:36.353Z,100618.73
2018-05-13T20:50:38.993Z,100623.34
2018-05-13T20:53:51.007Z,100628.91
2018-05-13T20:57:07.210Z,100637.17
2018-05-13T21:00:10.276Z,100638.47
2018-05-13T21:03:12.857Z,100640.28
2018-05-13T21:06:19.120Z,100640.45
2018-05-13T21:10:48.987Z,100642.34
2018-05-13T21:13:51.626Z,100639.30
2018-05-13T21:16:54.209Z,100637.89
2018-05-13T21:19:56.831Z,100640.37
2018-05-13T21:22:59.415Z,100640.63
2018-05-13T21:33:42.965Z,100633.75
2018-05-13T21:36:45.525Z,100632.31
2018-05-13T21:39:48.183Z,100642.09
2018-05-13T21:42:50.823Z,100639.85
2018-05-13T21:45:53.460Z,100641.08
2018-05-13T21:48:56.072Z,100631.98
2018-05-13T21:51:58.759Z,100634.38
2018-05-13T21:55:01.404Z,100638.57
2018-05-13T21:58:04.788Z,100633.51
2018-05-13T22:01:09.799Z,100638.05
2018-05-13T22:04:13.129Z,100635.53
2018-05-13T22:07:15.683Z,100635.78
2018-05-13T22:10:18.423Z,100634.56
2018-05-13T22:13:21.057Z,100633.49
2018-05-13T22:16:23.727Z,100635.75
2018-05-13T22:19:26.480Z,100646.38
2018-05-13T22:22:30.236Z,100639.33
2018-05-13T22:25:33.950Z,100640.86
2018-05-13T22:28:38.673Z,100635.48
2018-05-13T22:31:44.314Z,100635.06
2018-05-13T22:34:48.356Z,100629.97
2018-05-13T22:48:01.247Z,100634.09
2018-05-13T22:51:04.812Z,100630.53
2018-05-13T22:54:08.418Z,100632.13
2018-05-13T22:57:18.792Z,100634.52
2018-05-13T23:00:21.384Z,100625.78
2018-05-13T23:03:25.432Z,100633.13
2018-05-13T23:06:30.926Z,100627.66
2018-05-13T23:09:33.682Z,100632.62
2018-05-13T23:12:36.854Z,100634.79
2018-05-13T23:15:39.460Z,100633.31
2018-05-13T23:18:42.865Z,100641.11
2018-05-13T23:21:45.659Z,100643.91
2018-05-13T23:24:48.271Z,100643.95
2018-05-13T23:27:55.703Z,100646.13
2018-05-13T23:30:58.240Z,100652.19
2018-05-13T23:34:00.792Z,100646.97
2018-05-13T23:37:03.359Z,100649.69
2018-05-13T23:40:05.931Z,100651.36
2018-05-13T23:43:08.468Z,100648.25
2018-05-13T23:46:11.028Z,100650.19
2018-05-13T23:49:13.583Z,100646.92
2018-05-13T23:52:16.158Z,100650.83
2018-05-13T23:55:18.729Z,100654.03
2018-05-13T23:58:21.280Z,100651.28
